createdAt,value
2019-01-02T00:00:10.874Z,99.90
2019-01-02T00:02:39.681Z,99.90
2019-01-02T00:05:08.170Z,99.90
2019-01-02T00:07:36.961Z,99.90
2019-01-02T00:10:06.832Z,99.90
2019-01-02T00:12:35.472Z,99.90
2019-01-02T00:15:04.715Z,99.90
2019-01-02T00:17:33.135Z,99.90
2019-01-02T00:20:01.941Z,99.70
2019-01-02T00:22:30.361Z,99.70
2019-01-02T00:24:59.065Z,99.60
2019-01-02T00:27:27.494Z,99.60
2019-01-02T00:29:56.199Z,99.40
2019-01-02T00:32:24.622Z,99.10
2019-01-02T00:34:53.258Z,98.90
2019-01-02T00:37:21.722Z,98.40
2019-01-02T00:39:50.146Z,98.30
2019-01-02T00:42:18.578Z,97.90
2019-01-02T00:44:47.002Z,97.10
2019-01-02T00:47:15.425Z,96.40
2019-01-02T00:49:43.955Z,95.90
2019-01-02T00:52:12.655Z,95.70
2019-01-02T00:54:41.078Z,95.80
2019-01-02T00:57:09.878Z,95.90
2019-01-02T00:59:38.547Z,96.00
2019-01-02T01:02:06.963Z,95.10
2019-01-02T01:04:35.746Z,95.50
2019-01-02T01:07:04.157Z,95.10
2019-01-02T01:09:32.591Z,95.10
2019-01-02T01:12:01.010Z,93.80
2019-01-02T01:14:29.434Z,93.40
2019-01-02T01:16:57.849Z,92.70
2019-01-02T01:19:26.284Z,91.70
2019-01-02T01:21:54.922Z,91.40
2019-01-02T01:24:23.391Z,92.00
2019-01-02T01:26:52.405Z,91.90
2019-01-02T01:29:20.874Z,92.10
2019-01-02T01:31:49.669Z,92.40
2019-01-02T01:34:18.097Z,92.70
2019-01-02T01:36:46.514Z,92.70
2019-01-02T01:39:15.311Z,92.40
2019-01-02T01:41:43.987Z,92.20
2019-01-02T01:44:12.394Z,92.00
2019-01-02T01:46:40.826Z,92.50
2019-01-02T01:49:09.241Z,92.70
2019-01-02T01:51:38.186Z,93.20
2019-01-02T01:54:06.594Z,92.70
2019-01-02T01:56:35.292Z,92.30
2019-01-02T01:59:03.762Z,92.50
2019-01-02T02:01:32.191Z,93.10
2019-01-02T02:04:00.981Z,93.00
2019-01-02T02:06:29.414Z,93.20
2019-01-02T02:08:57.824Z,92.80
2019-01-02T02:11:26.529Z,91.90
2019-01-02T02:13:54.945Z,92.10
2019-01-02T02:16:23.749Z,91.40
2019-01-02T02:18:52.161Z,92.40
2019-01-02T02:21:20.597Z,94.10
2019-01-02T02:23:49.394Z,95.60
2019-01-02T02:26:17.822Z,96.70
2019-01-02T02:28:46.414Z,97.30
2019-01-02T02:31:14.837Z,97.80
2019-01-02T02:33:43.425Z,98.30
2019-01-02T02:36:12.226Z,98.70
2019-01-02T02:38:40.913Z,98.90
2019-01-02T02:41:09.865Z,99.10
2019-01-02T02:43:38.757Z,99.20
2019-01-02T02:46:07.183Z,99.50
2019-01-02T02:48:35.977Z,99.60
2019-01-02T02:51:04.774Z,99.60
2019-01-02T02:53:33.476Z,99.60
2019-01-02T02:56:02.184Z,99.20
2019-01-02T02:58:31.132Z,97.80
2019-01-02T03:00:59.982Z,97.20
2019-01-02T03:03:28.761Z,97.30
2019-01-02T03:05:57.172Z,97.40
2019-01-02T03:08:25.767Z,97.80
2019-01-02T03:10:54.669Z,97.40
2019-01-02T03:13:23.684Z,97.70
2019-01-02T03:15:52.510Z,97.80
2019-01-02T03:18:21.534Z,98.10
2019-01-02T03:20:49.985Z,98.40
2019-01-02T03:23:18.634Z,98.80
2019-01-02T03:25:47.736Z,98.50
2019-01-02T03:28:16.795Z,98.80
2019-01-02T03:30:45.593Z,98.90
2019-01-02T03:33:14.595Z,99.00
2019-01-02T03:35:43.079Z,98.90
2019-01-02T03:38:11.497Z,98.70
2019-01-02T03:40:39.901Z,98.60
2019-01-02T03:43:08.546Z,98.50
2019-01-02T03:45:36.997Z,98.10
2019-01-02T03:48:05.412Z,97.60
2019-01-02T03:50:33.826Z,97.30
2019-01-02T03:53:02.253Z,97.40
2019-01-02T03:55:30.689Z,96.90
2019-01-02T03:57:59.105Z,96.70
2019-01-02T04:00:27.520Z,96.70
2019-01-02T04:02:55.966Z,96.60
2019-01-02T04:05:25.144Z,97.10
2019-01-02T04:07:56.893Z,98.10
2019-01-02T04:10:25.338Z,98.50
2019-01-02T04:12:53.759Z,98.50
2019-01-02T04:15:22.197Z,98.70
2019-01-02T04:17:50.614Z,98.90
2019-01-02T04:20:19.276Z,98.90
2019-01-02T04:22:47.693Z,98.80
2019-01-02T04:25:16.394Z,99.00
2019-01-02T04:27:45.094Z,99.10
2019-01-02T04:30:15.171Z,99.10
2019-01-02T04:32:43.623Z,99.00
2019-01-02T04:35:12.026Z,98.70
2019-01-02T04:37:40.493Z,98.70
2019-01-02T04:40:11.392Z,98.60
2019-01-02T04:42:39.801Z,97.70
2019-01-02T04:45:10.156Z,97.30
2019-01-02T04:47:38.564Z,97.30
2019-01-02T04:50:09.818Z,97.30
2019-01-02T04:52:38.481Z,97.40
2019-01-02T04:55:06.901Z,97.50
2019-01-02T04:57:35.313Z,97.60
2019-01-02T05:00:09.485Z,97.70
2019-01-02T05:02:38.133Z,97.90
2019-01-02T05:05:07.142Z,98.20
2019-01-02T05:07:35.613Z,98.20
2019-01-02T05:10:06.175Z,98.10
2019-01-02T05:12:34.585Z,98.30
2019-01-02T05:15:03.040Z,98.30
2019-01-02T05:17:31.701Z,98.60
2019-01-02T05:20:00.156Z,98.70
2019-01-02T05:22:28.618Z,98.60
2019-01-02T05:24:57.283Z,98.40
2019-01-02T05:27:26.158Z,98.00
2019-01-02T05:29:54.613Z,98.00
2019-01-02T05:32:23.025Z,98.00
2019-01-02T05:34:51.659Z,97.80
2019-01-02T05:37:20.114Z,97.50
2019-01-02T05:39:48.562Z,97.10
2019-01-02T05:42:16.966Z,96.60
2019-01-02T05:44:45.409Z,96.90
2019-01-02T05:47:13.808Z,97.00
2019-01-02T05:49:42.591Z,96.50
2019-01-02T05:52:10.996Z,96.20
2019-01-02T05:54:39.712Z,95.60
2019-01-02T05:57:08.188Z,95.30
2019-01-02T05:59:36.605Z,95.30
2019-01-02T06:02:05.009Z,95.20
2019-01-02T06:04:33.650Z,94.90
2019-01-02T06:07:02.352Z,94.90
2019-01-02T06:09:30.770Z,94.50
2019-01-02T06:11:59.213Z,94.70
2019-01-02T06:14:27.922Z,94.60
2019-01-02T06:16:56.390Z,94.90
2019-01-02T06:19:24.804Z,95.70
2019-01-02T06:21:53.223Z,96.20
2019-01-02T06:24:21.882Z,96.70
2019-01-02T06:26:50.305Z,96.70
2019-01-02T06:29:19.128Z,96.60
2019-01-02T06:31:47.809Z,96.90
2019-01-02T06:34:16.246Z,97.00
2019-01-02T06:36:44.661Z,97.20
2019-01-02T06:39:13.324Z,97.30
2019-01-02T06:41:41.980Z,97.60
2019-01-02T06:44:10.389Z,97.40
2019-01-02T06:46:39.062Z,97.20
2019-01-02T06:49:07.468Z,97.30
2019-01-02T06:51:35.896Z,97.20
2019-01-02T06:54:04.334Z,97.20
2019-01-02T06:56:32.752Z,97.00
2019-01-02T06:59:01.169Z,96.40
2019-01-02T07:01:29.614Z,96.50
2019-01-02T07:03:58.287Z,96.20
2019-01-02T07:06:26.706Z,96.10
2019-01-02T07:08:55.131Z,96.00
2019-01-02T07:11:23.583Z,95.60
2019-01-02T07:13:52.014Z,95.40
2019-01-02T07:16:20.640Z,95.20
2019-01-02T07:18:49.120Z,95.20
2019-01-02T07:21:17.799Z,95.20
2019-01-02T07:23:46.209Z,95.20
2019-01-02T07:26:14.634Z,95.10
2019-01-02T07:28:43.053Z,95.20
2019-01-02T07:31:11.555Z,95.10
2019-01-02T07:33:43.328Z,95.00
2019-01-02T07:36:41.762Z,95.10
2019-01-02T07:39:19.029Z,94.80
2019-01-02T07:42:20.873Z,94.20
2019-01-02T07:44:58.675Z,94.30
2019-01-02T07:47:52.621Z,94.10
2019-01-02T07:50:33.002Z,94.20
2019-01-02T07:53:10.311Z,94.30
2019-01-02T07:55:42.047Z,94.20
2019-01-02T07:58:19.341Z,94.10
2019-01-02T08:01:02.893Z,94.00
2019-01-02T08:04:07.923Z,93.80
2019-01-02T08:06:42.571Z,94.40
2019-01-02T08:09:36.776Z,95.10
2019-01-02T08:12:23.147Z,95.50
2019-01-02T08:15:15.649Z,95.60
2019-01-02T08:17:49.942Z,95.30
2019-01-02T08:20:30.354Z,95.40
2019-01-02T08:23:13.699Z,95.40
2019-01-02T08:25:51.342Z,95.00
2019-01-02T08:28:34.812Z,95.10
2019-01-02T08:31:18.242Z,95.30
2019-01-02T08:33:49.788Z,94.90
2019-01-02T08:36:37.764Z,94.90
2019-01-02T08:39:24.141Z,95.20
2019-01-02T08:42:22.693Z,95.50
2019-01-02T08:45:02.711Z,95.70
2019-01-02T08:47:53.684Z,95.70
2019-01-02T08:50:41.549Z,95.40
2019-01-02T08:53:21.792Z,95.30
2019-01-02T08:56:11.312Z,95.10
2019-01-02T08:59:02.298Z,94.90
2019-01-02T09:02:02.620Z,95.00
2019-01-02T09:04:40.077Z,95.00
2019-01-02T09:07:20.487Z,95.20
2019-01-02T09:10:01.030Z,95.00
2019-01-02T09:12:44.264Z,95.20
2019-01-02T09:15:21.509Z,94.70
2019-01-02T09:18:12.210Z,94.40
2019-01-02T09:20:59.171Z,94.70
2019-01-02T09:23:47.787Z,94.80
2019-01-02T09:26:45.746Z,95.20
2019-01-02T09:29:20.407Z,95.30
2019-01-02T09:32:00.845Z,95.40
2019-01-02T09:34:32.652Z,95.70
2019-01-02T09:37:13.078Z,95.90
2019-01-02T09:39:50.797Z,95.80
2019-01-02T09:42:40.649Z,96.10
2019-01-02T09:45:27.423Z,95.90
2019-01-02T09:48:16.864Z,95.50
2019-01-02T09:51:05.089Z,94.50
2019-01-02T09:53:51.093Z,94.00
2019-01-02T09:56:49.268Z,94.00
2019-01-02T09:59:20.816Z,93.80
2019-01-02T10:01:52.343Z,93.80
2019-01-02T10:04:41.713Z,93.60
2019-01-02T10:07:13.197Z,93.00
2019-01-02T10:10:07.086Z,92.90
2019-01-02T10:12:50.232Z,93.00
2019-01-02T10:15:41.017Z,93.30
2019-01-02T10:18:31.741Z,93.40
2019-01-02T10:21:19.761Z,93.20
2019-01-02T10:24:02.754Z,93.10
2019-01-02T10:26:40.645Z,92.80
2019-01-02T10:29:15.203Z,92.30
2019-01-02T10:32:01.075Z,92.20
2019-01-02T10:34:49.926Z,92.20
2019-01-02T10:37:43.702Z,91.60
2019-01-02T10:40:44.159Z,90.90
2019-01-02T10:43:21.378Z,91.00
2019-01-02T10:46:12.698Z,90.90
2019-01-02T10:48:49.982Z,91.00
2019-01-02T10:51:36.252Z,90.00
2019-01-02T10:54:16.522Z,89.40
2019-01-02T10:57:00.286Z,90.00
2019-01-02T10:59:34.598Z,90.20
2019-01-02T11:02:23.973Z,90.30
2019-01-02T11:04:58.576Z,90.40
2019-01-02T11:07:33.093Z,90.40
2019-01-02T11:10:19.507Z,89.00
2019-01-02T11:13:05.641Z,89.70
2019-01-02T11:15:42.666Z,89.20
2019-01-02T11:18:16.722Z,88.70
2019-01-02T11:21:10.408Z,88.90
2019-01-02T11:23:56.650Z,89.00
2019-01-02T11:26:58.287Z,89.40
2019-01-02T11:29:32.495Z,90.00
2019-01-02T11:32:20.069Z,90.10
2019-01-02T11:35:08.410Z,88.50
2019-01-02T11:37:43.059Z,89.00
2019-01-02T11:40:17.185Z,87.80
2019-01-02T11:42:54.447Z,88.30
2019-01-02T11:45:23.113Z,88.10
2019-01-02T11:47:51.529Z,88.40
2019-01-02T11:50:19.978Z,88.10
2019-01-02T11:52:48.643Z,87.20
2019-01-02T11:55:17.150Z,86.10
2019-01-02T11:57:45.573Z,84.80
2019-01-02T12:00:14.951Z,84.10
2019-01-02T12:02:43.624Z,84.80
2019-01-02T12:05:12.099Z,84.60
2019-01-02T12:07:40.770Z,84.20
2019-01-02T12:10:10.748Z,81.30
2019-01-02T12:12:39.208Z,79.90
2019-01-02T12:15:09.305Z,79.90
2019-01-02T12:17:37.750Z,81.00
2019-01-02T12:20:08.609Z,80.30
2019-01-02T12:22:37.055Z,82.20
2019-01-02T12:25:06.239Z,83.00
2019-01-02T12:27:34.806Z,83.10
2019-01-02T12:30:04.845Z,82.70
2019-01-02T12:32:33.253Z,83.20
2019-01-02T12:35:01.675Z,83.10
2019-01-02T12:37:30.106Z,82.90
2019-01-02T12:39:58.523Z,83.40
2019-01-02T12:42:26.953Z,84.50
2019-01-02T12:44:55.382Z,85.10
2019-01-02T12:47:24.061Z,84.40
2019-01-02T12:49:52.480Z,84.50
2019-01-02T12:52:20.938Z,84.70
2019-01-02T12:54:49.386Z,85.40
2019-01-02T12:57:17.818Z,83.60
2019-01-02T12:59:46.262Z,84.20
2019-01-02T13:02:29.878Z,84.40
2019-01-02T13:05:16.629Z,83.60
2019-01-02T13:08:00.012Z,85.30
2019-01-02T13:10:31.554Z,90.00
2019-01-02T13:13:03.241Z,91.40
2019-01-02T13:15:43.991Z,91.70
2019-01-02T13:18:27.119Z,91.90
2019-01-02T13:21:07.651Z,92.20
2019-01-02T13:23:45.879Z,93.30
2019-01-02T13:26:23.894Z,94.90
2019-01-02T13:29:10.360Z,96.30
2019-01-02T13:31:41.853Z,95.10
2019-01-02T13:34:16.141Z,95.50
2019-01-02T13:36:53.294Z,95.50
2019-01-02T13:39:24.797Z,95.50
2019-01-02T13:42:02.558Z,95.40
2019-01-02T13:44:39.854Z,95.60
2019-01-02T13:47:38.786Z,95.90
2019-01-02T13:50:22.035Z,96.00
2019-01-02T13:52:50.542Z,95.70
2019-01-02T13:55:19.054Z,95.70
2019-01-02T13:57:47.489Z,95.40
2019-01-02T14:00:16.218Z,95.50
2019-01-02T14:02:45.073Z,95.40
2019-01-02T14:05:16.822Z,95.50
2019-01-02T14:07:45.278Z,94.80
2019-01-02T14:10:13.942Z,94.40
2019-01-02T14:12:42.371Z,94.60
2019-01-02T14:15:10.920Z,94.30
2019-01-02T14:17:39.394Z,94.60
2019-01-02T14:20:09.046Z,94.50
2019-01-02T14:22:37.762Z,94.60
2019-01-02T14:25:06.727Z,94.00
2019-01-02T14:27:35.203Z,93.60
2019-01-02T14:30:04.831Z,93.70
2019-01-02T14:32:33.250Z,93.70
2019-01-02T14:35:01.751Z,93.60
2019-01-02T14:37:30.170Z,93.70
2019-01-02T14:39:58.606Z,93.50
2019-01-02T14:42:27.015Z,93.90
2019-01-02T14:44:55.439Z,92.80
2019-01-02T14:47:24.256Z,92.90
2019-01-02T14:49:52.774Z,92.60
2019-01-02T14:52:21.187Z,92.80
2019-01-02T14:54:49.609Z,92.80
2019-01-02T14:57:18.021Z,93.00
2019-01-02T14:59:46.547Z,92.90
2019-01-02T15:02:14.952Z,93.10
2019-01-02T15:04:43.387Z,93.20
2019-01-02T15:07:11.801Z,93.30
2019-01-02T15:09:40.228Z,92.90
2019-01-02T15:12:08.644Z,93.20
2019-01-02T15:14:37.327Z,93.40
2019-01-02T15:17:06.058Z,93.50
2019-01-02T15:19:34.861Z,93.50
2019-01-02T15:22:05.004Z,93.30
2019-01-02T15:24:33.506Z,92.90
2019-01-02T15:27:01.916Z,92.70
2019-01-02T15:29:30.395Z,92.50
2019-01-02T15:31:58.806Z,91.80
2019-01-02T15:34:27.243Z,91.80
2019-01-02T15:36:55.661Z,91.50
2019-01-02T15:39:24.085Z,92.00
2019-01-02T15:41:52.505Z,92.60
2019-01-02T15:44:20.947Z,93.10
2019-01-02T15:46:49.365Z,92.50
2019-01-02T15:49:18.086Z,92.70
2019-01-02T15:51:46.591Z,92.00
2019-01-02T15:54:15.007Z,92.20
2019-01-02T15:56:43.425Z,92.00
2019-01-02T15:59:12.089Z,92.00
2019-01-02T16:01:40.579Z,91.80
2019-01-02T16:04:09.258Z,92.00
2019-01-02T16:06:37.686Z,92.10
2019-01-02T16:09:06.969Z,92.00
2019-01-02T16:11:35.382Z,92.00
2019-01-02T16:14:03.873Z,92.40
2019-01-02T16:16:32.547Z,91.40
2019-01-02T16:19:00.975Z,91.90
2019-01-02T16:21:29.642Z,91.90
2019-01-02T16:23:58.071Z,91.70
2019-01-02T16:26:26.743Z,91.80
2019-01-02T16:28:55.161Z,92.20
2019-01-02T16:31:23.918Z,92.70
2019-01-02T16:33:52.505Z,93.40
2019-01-02T16:36:21.163Z,94.30
2019-01-02T16:38:49.618Z,94.50
2019-01-02T16:41:18.034Z,94.50
2019-01-02T16:43:46.698Z,94.60
2019-01-02T16:46:15.150Z,93.70
2019-01-02T16:48:43.599Z,92.70
2019-01-02T16:51:12.009Z,93.10
2019-01-02T16:53:40.438Z,92.90
2019-01-02T16:56:09.111Z,92.30
2019-01-02T16:58:37.832Z,92.80
2019-01-02T17:01:06.246Z,92.90
2019-01-02T17:03:34.714Z,93.10
2019-01-02T17:06:03.149Z,92.40
2019-01-02T17:08:31.816Z,92.80
2019-01-02T17:11:00.230Z,92.40
2019-01-02T17:13:28.642Z,92.30
2019-01-02T17:15:57.072Z,92.00
2019-01-02T17:18:25.515Z,91.70
2019-01-02T17:20:53.960Z,91.70
2019-01-02T17:23:22.384Z,91.50
2019-01-02T17:25:50.797Z,91.50
2019-01-02T17:28:19.211Z,91.30
2019-01-02T17:30:47.641Z,91.10
2019-01-02T17:33:16.092Z,91.00
2019-01-02T17:35:44.546Z,90.90
2019-01-02T17:38:12.994Z,90.40
2019-01-02T17:40:41.491Z,90.90
2019-01-02T17:43:09.935Z,91.10
2019-01-02T17:45:38.351Z,91.30
2019-01-02T17:48:06.777Z,91.20
2019-01-02T17:50:35.220Z,91.00
2019-01-02T17:53:03.621Z,91.00
2019-01-02T17:55:32.070Z,91.30
2019-01-02T17:58:00.530Z,91.80
2019-01-02T18:00:28.978Z,92.00
2019-01-02T18:02:57.397Z,92.30
2019-01-02T18:05:25.820Z,92.30
2019-01-02T18:07:54.301Z,92.50
2019-01-02T18:10:22.714Z,92.80
2019-01-02T18:12:51.150Z,92.80
2019-01-02T18:15:19.563Z,93.20
2019-01-02T18:17:48.231Z,93.10
2019-01-02T18:20:16.813Z,93.10
2019-01-02T18:22:45.501Z,93.20
2019-01-02T18:25:13.978Z,93.30
2019-01-02T18:27:42.410Z,93.60
2019-01-02T18:30:12.164Z,93.40
2019-01-02T18:32:40.882Z,93.50
2019-01-02T18:35:09.333Z,94.00
2019-01-02T18:37:38.041Z,94.00
2019-01-02T18:40:06.493Z,94.00
2019-01-02T18:42:34.917Z,93.60
2019-01-02T18:45:03.426Z,93.70
2019-01-02T18:47:31.885Z,93.30
2019-01-02T18:50:00.301Z,93.10
2019-01-02T18:52:28.737Z,92.90
2019-01-02T18:54:57.146Z,92.50
2019-01-02T18:57:25.897Z,92.40
2019-01-02T18:59:54.374Z,92.30
2019-01-02T19:02:22.801Z,92.40
2019-01-02T19:04:51.214Z,92.70
2019-01-02T19:07:19.647Z,92.30
2019-01-02T19:09:48.296Z,92.40
2019-01-02T19:12:16.766Z,92.60
2019-01-02T19:14:45.206Z,92.90
2019-01-02T19:17:13.862Z,93.00
2019-01-02T19:19:42.274Z,93.20
2019-01-02T19:22:11.031Z,93.10
2019-01-02T19:24:39.481Z,93.10
2019-01-02T19:27:08.151Z,93.10
2019-01-02T19:29:36.897Z,93.10
2019-01-02T19:32:05.342Z,93.30
2019-01-02T19:34:34.047Z,93.20
2019-01-02T19:37:02.493Z,93.20
2019-01-02T19:39:30.946Z,93.20
2019-01-02T19:41:59.378Z,93.40
2019-01-02T19:44:27.804Z,93.40
2019-01-02T19:46:56.213Z,93.60
2019-01-02T19:49:24.648Z,93.80
2019-01-02T19:51:53.090Z,93.50
2019-01-02T19:54:21.509Z,92.90
2019-01-02T19:56:50.221Z,92.40
2019-01-02T19:59:18.686Z,92.40
2019-01-02T20:01:47.099Z,91.90
2019-01-02T20:04:15.530Z,91.60
2019-01-02T20:06:43.939Z,91.20
2019-01-02T20:09:12.362Z,90.90
2019-01-02T20:11:40.785Z,91.10
2019-01-02T20:14:09.214Z,90.90
2019-01-02T20:16:37.731Z,90.70
2019-01-02T20:19:06.150Z,90.70
2019-01-02T20:21:34.556Z,90.50
2019-01-02T20:24:03.275Z,90.50
2019-01-02T20:26:32.048Z,90.40
2019-01-02T20:29:00.747Z,90.30
2019-01-02T20:31:29.190Z,90.50
2019-01-02T20:33:57.601Z,90.40
2019-01-02T20:36:26.032Z,90.20
2019-01-02T20:38:54.465Z,90.00
2019-01-02T20:41:22.882Z,89.40
2019-01-02T20:43:51.338Z,89.90
2019-01-02T20:46:19.778Z,90.00
2019-01-02T20:48:48.180Z,89.90
2019-01-02T20:51:16.857Z,90.00
2019-01-02T20:53:45.496Z,89.90
2019-01-02T20:56:14.202Z,89.40
2019-01-02T20:58:42.641Z,88.80
2019-01-02T21:01:11.415Z,87.20
2019-01-02T21:03:39.843Z,88.10
2019-01-02T21:06:08.261Z,87.00
2019-01-02T21:08:36.665Z,87.00
2019-01-02T21:11:05.085Z,86.60
2019-01-02T21:13:33.494Z,87.30
2019-01-02T21:16:01.933Z,88.10
2019-01-02T21:18:30.599Z,88.30
2019-01-02T21:20:59.271Z,88.90
2019-01-02T21:23:27.722Z,89.50
2019-01-02T21:25:56.137Z,89.20
2019-01-02T21:28:24.541Z,89.40
2019-01-02T21:30:52.959Z,89.00
2019-01-02T21:33:21.394Z,89.70
2019-01-02T21:35:49.801Z,89.40
2019-01-02T21:38:18.208Z,89.50
2019-01-02T21:40:46.658Z,89.80
2019-01-02T21:43:15.058Z,89.70
2019-01-02T21:45:43.478Z,90.10
2019-01-02T21:48:11.880Z,90.10
2019-01-02T21:50:40.542Z,90.20
2019-01-02T21:53:09.620Z,90.40
2019-01-02T21:55:38.242Z,90.30
2019-01-02T21:58:06.946Z,90.60
2019-01-02T22:00:35.645Z,90.80
2019-01-02T22:03:04.080Z,90.50
2019-01-02T22:05:32.791Z,90.50
2019-01-02T22:08:01.232Z,90.50
2019-01-02T22:10:29.866Z,90.40
2019-01-02T22:12:58.561Z,90.50
2019-01-02T22:15:26.980Z,90.80
2019-01-02T22:17:55.647Z,90.50
2019-01-02T22:20:24.077Z,90.50
2019-01-02T22:22:52.546Z,90.40
2019-01-02T22:25:21.232Z,90.40
2019-01-02T22:27:49.652Z,90.40
2019-01-02T22:30:18.049Z,90.20
2019-01-02T22:32:46.460Z,90.10
2019-01-02T22:35:15.195Z,89.90
2019-01-02T22:37:44.005Z,89.80
2019-01-02T22:40:12.433Z,89.70
2019-01-02T22:42:40.848Z,89.20
2019-01-02T22:45:09.256Z,89.20
2019-01-02T22:47:37.674Z,89.70
2019-01-02T22:50:08.378Z,89.50
2019-01-02T22:52:36.786Z,90.10
2019-01-02T22:55:05.221Z,89.20
2019-01-02T22:57:33.662Z,89.50
2019-01-02T23:00:02.339Z,89.40
2019-01-02T23:02:32.465Z,89.10
2019-01-02T23:05:02.521Z,89.00
2019-01-02T23:07:48.822Z,89.60
2019-01-02T23:10:18.895Z,88.70
2019-01-02T23:13:01.175Z,89.00
2019-01-02T23:15:37.728Z,88.80
2019-01-02T23:18:16.703Z,89.10
2019-01-02T23:20:58.783Z,89.40
2019-01-02T23:23:31.582Z,89.40
2019-01-02T23:26:18.117Z,88.60
2019-01-02T23:28:54.786Z,88.20
2019-01-02T23:31:31.094Z,87.50
2019-01-02T23:34:16.691Z,87.60
2019-01-02T23:36:47.064Z,87.10
2019-01-02T23:39:22.940Z,87.10
2019-01-02T23:41:55.954Z,86.80
2019-01-02T23:44:37.777Z,86.50
2019-01-02T23:47:24.031Z,85.80
2019-01-02T23:49:56.927Z,85.90
2019-01-02T23:52:35.627Z,85.50
2019-01-02T23:55:11.382Z,84.70
